sensor_id;sensor_type;location;lat;lon;timestamp;P1;durP1;ratioP1;P2;durP2;ratioP2
5153;SDS011;2595;53.584;10.084;2022-09-09T00:07:22;41.30;;;26.53;;
5153;SDS011;2595;53.584;10.084;2022-09-09T00:15:22;45.00;;;27.40;;
5153;SDS011;2595;53.584;10.084;2022-09-09T00:17:59;40.77;;;26.30;;
5153;SDS011;2595;53.584;10.084;2022-09-09T00:20:55;42.97;;;26.33;;
5153;SDS011;2595;53.584;10.084;2022-09-09T00:23:37;42.50;;;26.17;;
5153;SDS011;2595;53.584;10.084;2022-09-09T00:26:27;44.57;;;26.80;;
5153;SDS011;2595;53.584;10.084;2022-09-09T00:31:43;42.03;;;28.13;;
5153;SDS011;2595;53.584;10.084;2022-09-09T00:34:16;44.50;;;27.30;;
5153;SDS011;2595;53.584;10.084;2022-09-09T00:36:46;37.00;;;25.53;;
5153;SDS011;2595;53.584;10.084;2022-09-09T00:42:12;34.67;;;24.07;;
5153;SDS011;2595;53.584;10.084;2022-09-09T00:45:38;35.60;;;25.33;;
5153;SDS011;2595;53.584;10.084;2022-09-09T00:47:51;32.33;;;21.97;;
5153;SDS011;2595;53.584;10.084;2022-09-09T00:58:34;26.23;;;20.63;;
5153;SDS011;2595;53.584;10.084;2022-09-09T01:03:56;23.43;;;19.33;;
5153;SDS011;2595;53.584;10.084;2022-09-09T01:11:23;23.03;;;17.50;;
5153;SDS011;2595;53.584;10.084;2022-09-09T01:17:15;19.37;;;16.97;;
5153;SDS011;2595;53.584;10.084;2022-09-09T01:20:03;19.53;;;17.07;;
5153;SDS011;2595;53.584;10.084;2022-09-09T01:23:19;19.67;;;16.00;;
5153;SDS011;2595;53.584;10.084;2022-09-09T01:28:51;18.70;;;16.53;;
5153;SDS011;2595;53.584;10.084;2022-09-09T01:31:19;23.50;;;18.00;;
5153;SDS011;2595;53.584;10.084;2022-09-09T01:33:47;19.17;;;16.97;;
5153;SDS011;2595;53.584;10.084;2022-09-09T01:38:59;19.03;;;16.87;;
5153;SDS011;2595;53.584;10.084;2022-09-09T01:41:25;20.40;;;17.37;;
5153;SDS011;2595;53.584;10.084;2022-09-09T01:43:50;19.70;;;17.60;;
5153;SDS011;2595;53.584;10.084;2022-09-09T01:46:18;18.67;;;16.67;;
5153;SDS011;2595;53.584;10.084;2022-09-09T01:48:46;18.50;;;16.03;;
5153;SDS011;2595;53.584;10.084;2022-09-09T01:51:12;22.37;;;18.60;;
5153;SDS011;2595;53.584;10.084;2022-09-09T01:53:39;22.67;;;18.40;;
5153;SDS011;2595;53.584;10.084;2022-09-09T01:59:15;19.20;;;16.50;;
5153;SDS011;2595;53.584;10.084;2022-09-09T02:04:22;23.90;;;16.63;;
5153;SDS011;2595;53.584;10.084;2022-09-09T02:06:57;24.27;;;17.27;;
5153;SDS011;2595;53.584;10.084;2022-09-09T02:09:23;25.37;;;18.00;;
5153;SDS011;2595;53.584;10.084;2022-09-09T02:11:53;23.20;;;18.00;;
5153;SDS011;2595;53.584;10.084;2022-09-09T02:14:34;26.10;;;19.80;;
5153;SDS011;2595;53.584;10.084;2022-09-09T02:17:07;20.83;;;16.27;;
5153;SDS011;2595;53.584;10.084;2022-09-09T02:19:40;26.90;;;18.33;;
5153;SDS011;2595;53.584;10.084;2022-09-09T02:22:11;25.17;;;19.20;;
5153;SDS011;2595;53.584;10.084;2022-09-09T02:24:39;22.80;;;17.57;;
5153;SDS011;2595;53.584;10.084;2022-09-09T02:27:06;23.53;;;18.10;;
5153;SDS011;2595;53.584;10.084;2022-09-09T02:29:35;19.40;;;17.30;;
5153;SDS011;2595;53.584;10.084;2022-09-09T02:32:05;21.10;;;16.50;;
5153;SDS011;2595;53.584;10.084;2022-09-09T02:34:34;23.63;;;16.57;;
5153;SDS011;2595;53.584;10.084;2022-09-09T02:37:01;21.03;;;18.57;;
5153;SDS011;2595;53.584;10.084;2022-09-09T02:39:29;20.40;;;17.17;;
5153;SDS011;2595;53.584;10.084;2022-09-09T02:41:54;19.50;;;17.30;;
5153;SDS011;2595;53.584;10.084;2022-09-09T02:44:21;20.93;;;17.30;;
5153;SDS011;2595;53.584;10.084;2022-09-09T02:49:30;22.57;;;17.30;;
5153;SDS011;2595;53.584;10.084;2022-09-09T02:52:19;24.27;;;17.90;;
5153;SDS011;2595;53.584;10.084;2022-09-09T02:54:50;21.23;;;17.80;;
5153;SDS011;2595;53.584;10.084;2022-09-09T02:57:23;23.40;;;17.10;;
5153;SDS011;2595;53.584;10.084;2022-09-09T02:59:52;23.50;;;17.83;;
5153;SDS011;2595;53.584;10.084;2022-09-09T03:02:19;25.17;;;19.10;;
5153;SDS011;2595;53.584;10.084;2022-09-09T03:04:45;24.30;;;17.20;;
5153;SDS011;2595;53.584;10.084;2022-09-09T03:07:15;21.97;;;15.97;;
5153;SDS011;2595;53.584;10.084;2022-09-09T03:09:42;20.90;;;16.57;;
5153;SDS011;2595;53.584;10.084;2022-09-09T03:12:08;23.53;;;17.03;;
5153;SDS011;2595;53.584;10.084;2022-09-09T03:14:36;19.93;;;17.43;;
5153;SDS011;2595;53.584;10.084;2022-09-09T03:17:03;22.10;;;17.90;;
5153;SDS011;2595;53.584;10.084;2022-09-09T03:19:29;24.73;;;16.70;;
5153;SDS011;2595;53.584;10.084;2022-09-09T03:21:55;18.67;;;16.60;;
5153;SDS011;2595;53.584;10.084;2022-09-09T03:24:21;20.30;;;16.00;;
5153;SDS011;2595;53.584;10.084;2022-09-09T03:26:47;20.37;;;16.00;;
5153;SDS011;2595;53.584;10.084;2022-09-09T03:29:13;19.10;;;16.40;;
5153;SDS011;2595;53.584;10.084;2022-09-09T03:31:39;20.07;;;16.33;;
5153;SDS011;2595;53.584;10.084;2022-09-09T03:34:06;22.77;;;17.33;;
5153;SDS011;2595;53.584;10.084;2022-09-09T03:36:31;27.30;;;17.60;;
5153;SDS011;2595;53.584;10.084;2022-09-09T03:38:57;22.13;;;16.20;;
5153;SDS011;2595;53.584;10.084;2022-09-09T03:41:24;20.87;;;16.97;;
5153;SDS011;2595;53.584;10.084;2022-09-09T03:43:51;16.80;;;14.30;;
5153;SDS011;2595;53.584;10.084;2022-09-09T03:46:17;23.83;;;15.50;;
5153;SDS011;2595;53.584;10.084;2022-09-09T03:48:43;16.83;;;15.13;;
5153;SDS011;2595;53.584;10.084;2022-09-09T03:51:09;18.70;;;16.80;;
5153;SDS011;2595;53.584;10.084;2022-09-09T03:53:35;19.80;;;17.20;;
5153;SDS011;2595;53.584;10.084;2022-09-09T03:56:03;23.50;;;18.83;;
5153;SDS011;2595;53.584;10.084;2022-09-09T03:58:31;20.87;;;15.63;;
5153;SDS011;2595;53.584;10.084;2022-09-09T04:01:05;17.23;;;15.43;;
5153;SDS011;2595;53.584;10.084;2022-09-09T04:03:33;15.37;;;13.97;;
5153;SDS011;2595;53.584;10.084;2022-09-09T04:06:00;17.07;;;15.20;;
5153;SDS011;2595;53.584;10.084;2022-09-09T04:08:28;17.50;;;15.23;;
5153;SDS011;2595;53.584;10.084;2022-09-09T04:10:56;16.37;;;14.67;;
5153;SDS011;2595;53.584;10.084;2022-09-09T04:13:23;15.70;;;14.03;;
5153;SDS011;2595;53.584;10.084;2022-09-09T04:15:52;15.80;;;14.17;;
5153;SDS011;2595;53.584;10.084;2022-09-09T04:18:19;16.27;;;14.57;;
5153;SDS011;2595;53.584;10.084;2022-09-09T04:20:49;15.80;;;14.30;;
5153;SDS011;2595;53.584;10.084;2022-09-09T04:23:16;14.90;;;13.60;;
5153;SDS011;2595;53.584;10.084;2022-09-09T04:25:49;14.50;;;13.00;;
5153;SDS011;2595;53.584;10.084;2022-09-09T04:28:16;14.30;;;12.80;;
5153;SDS011;2595;53.584;10.084;2022-09-09T04:30:43;15.37;;;13.97;;
5153;SDS011;2595;53.584;10.084;2022-09-09T04:33:09;17.20;;;14.50;;
5153;SDS011;2595;53.584;10.084;2022-09-09T04:35:36;14.07;;;12.77;;
5153;SDS011;2595;53.584;10.084;2022-09-09T04:38:02;16.37;;;14.77;;
5153;SDS011;2595;53.584;10.084;2022-09-09T04:40:28;13.90;;;12.70;;
5153;SDS011;2595;53.584;10.084;2022-09-09T04:42:57;16.63;;;14.93;;
5153;SDS011;2595;53.584;10.084;2022-09-09T04:45:23;16.23;;;14.63;;
5153;SDS011;2595;53.584;10.084;2022-09-09T04:47:49;14.80;;;13.43;;
5153;SDS011;2595;53.584;10.084;2022-09-09T04:50:14;14.23;;;12.93;;
5153;SDS011;2595;53.584;10.084;2022-09-09T04:52:40;15.50;;;14.00;;
5153;SDS011;2595;53.584;10.084;2022-09-09T04:55:06;15.53;;;13.97;;
5153;SDS011;2595;53.584;10.084;2022-09-09T04:57:32;13.30;;;11.63;;
5153;SDS011;2595;53.584;10.084;2022-09-09T04:59:59;16.60;;;13.57;;
5153;SDS011;2595;53.584;10.084;2022-09-09T05:02:25;14.17;;;12.73;;
5153;SDS011;2595;53.584;10.084;2022-09-09T05:04:51;16.03;;;14.40;;
5153;SDS011;2595;53.584;10.084;2022-09-09T05:07:17;16.03;;;14.53;;
5153;SDS011;2595;53.584;10.084;2022-09-09T05:09:42;15.83;;;13.70;;
5153;SDS011;2595;53.584;10.084;2022-09-09T05:12:08;14.33;;;12.83;;
5153;SDS011;2595;53.584;10.084;2022-09-09T05:14:33;14.73;;;13.43;;
5153;SDS011;2595;53.584;10.084;2022-09-09T05:17:01;14.10;;;12.90;;
5153;SDS011;2595;53.584;10.084;2022-09-09T05:19:26;14.90;;;12.60;;
5153;SDS011;2595;53.584;10.084;2022-09-09T05:21:52;14.03;;;12.63;;
5153;SDS011;2595;53.584;10.084;2022-09-09T05:24:18;14.97;;;13.30;;
5153;SDS011;2595;53.584;10.084;2022-09-09T05:26:43;14.03;;;12.73;;
5153;SDS011;2595;53.584;10.084;2022-09-09T05:29:09;14.20;;;12.37;;
5153;SDS011;2595;53.584;10.084;2022-09-09T05:31:34;13.63;;;12.40;;
5153;SDS011;2595;53.584;10.084;2022-09-09T05:34:00;15.50;;;13.13;;
5153;SDS011;2595;53.584;10.084;2022-09-09T05:36:26;17.00;;;12.90;;
5153;SDS011;2595;53.584;10.084;2022-09-09T05:38:51;13.30;;;12.10;;
5153;SDS011;2595;53.584;10.084;2022-09-09T05:41:18;22.67;;;11.97;;
5153;SDS011;2595;53.584;10.084;2022-09-09T05:43:45;14.93;;;12.50;;
5153;SDS011;2595;53.584;10.084;2022-09-09T05:46:12;12.40;;;11.30;;
5153;SDS011;2595;53.584;10.084;2022-09-09T05:48:40;13.90;;;12.47;;
5153;SDS011;2595;53.584;10.084;2022-09-09T05:51:08;14.10;;;12.80;;
5153;SDS011;2595;53.584;10.084;2022-09-09T05:53:40;15.70;;;11.67;;
5153;SDS011;2595;53.584;10.084;2022-09-09T05:56:07;12.67;;;10.50;;
5153;SDS011;2595;53.584;10.084;2022-09-09T05:58:39;12.43;;;11.43;;
5153;SDS011;2595;53.584;10.084;2022-09-09T06:01:06;13.10;;;11.90;;
5153;SDS011;2595;53.584;10.084;2022-09-09T06:03:34;12.70;;;11.60;;
5153;SDS011;2595;53.584;10.084;2022-09-09T06:06:00;22.47;;;11.33;;
5153;SDS011;2595;53.584;10.084;2022-09-09T06:08:30;16.83;;;10.90;;
5153;SDS011;2595;53.584;10.084;2022-09-09T06:11:00;11.87;;;10.10;;
5153;SDS011;2595;53.584;10.084;2022-09-09T06:13:28;10.00;;;9.30;;
5153;SDS011;2595;53.584;10.084;2022-09-09T06:15:54;10.60;;;9.80;;
5153;SDS011;2595;53.584;10.084;2022-09-09T06:18:20;10.73;;;9.90;;
5153;SDS011;2595;53.584;10.084;2022-09-09T06:20:58;10.70;;;9.60;;
5153;SDS011;2595;53.584;10.084;2022-09-09T06:23:26;11.00;;;10.10;;
5153;SDS011;2595;53.584;10.084;2022-09-09T06:26:02;10.37;;;9.53;;
5153;SDS011;2595;53.584;10.084;2022-09-09T06:28:30;11.27;;;10.23;;
5153;SDS011;2595;53.584;10.084;2022-09-09T06:31:00;9.70;;;8.90;;
5153;SDS011;2595;53.584;10.084;2022-09-09T06:33:30;9.80;;;9.10;;
5153;SDS011;2595;53.584;10.084;2022-09-09T06:35:57;10.70;;;9.70;;
5153;SDS011;2595;53.584;10.084;2022-09-09T06:38:23;10.60;;;9.67;;
5153;SDS011;2595;53.584;10.084;2022-09-09T06:40:55;10.63;;;9.33;;
5153;SDS011;2595;53.584;10.084;2022-09-09T06:43:23;10.23;;;9.40;;
5153;SDS011;2595;53.584;10.084;2022-09-09T06:45:56;9.70;;;9.00;;
5153;SDS011;2595;53.584;10.084;2022-09-09T06:48:24;12.53;;;9.33;;
5153;SDS011;2595;53.584;10.084;2022-09-09T06:50:51;8.97;;;8.07;;
5153;SDS011;2595;53.584;10.084;2022-09-09T06:53:27;8.60;;;8.10;;
5153;SDS011;2595;53.584;10.084;2022-09-09T06:55:53;8.53;;;7.93;;
5153;SDS011;2595;53.584;10.084;2022-09-09T06:58:19;10.03;;;8.10;;
5153;SDS011;2595;53.584;10.084;2022-09-09T07:00:47;8.20;;;7.60;;
5153;SDS011;2595;53.584;10.084;2022-09-09T07:03:13;8.10;;;7.60;;
5153;SDS011;2595;53.584;10.084;2022-09-09T07:05:38;12.30;;;7.73;;
5153;SDS011;2595;53.584;10.084;2022-09-09T07:08:04;8.87;;;7.57;;
5153;SDS011;2595;53.584;10.084;2022-09-09T07:10:30;7.83;;;7.23;;
5153;SDS011;2595;53.584;10.084;2022-09-09T07:12:56;11.30;;;7.70;;
5153;SDS011;2595;53.584;10.084;2022-09-09T07:15:22;7.80;;;7.10;;
5153;SDS011;2595;53.584;10.084;2022-09-09T07:17:47;8.03;;;6.67;;
5153;SDS011;2595;53.584;10.084;2022-09-09T07:20:13;5.97;;;5.63;;
5153;SDS011;2595;53.584;10.084;2022-09-09T07:22:40;7.57;;;6.83;;
5153;SDS011;2595;53.584;10.084;2022-09-09T07:25:06;7.07;;;6.67;;
5153;SDS011;2595;53.584;10.084;2022-09-09T07:27:32;6.97;;;6.40;;
5153;SDS011;2595;53.584;10.084;2022-09-09T07:29:58;7.80;;;7.20;;
5153;SDS011;2595;53.584;10.084;2022-09-09T07:32:23;7.03;;;6.43;;
5153;SDS011;2595;53.584;10.084;2022-09-09T07:34:50;6.73;;;6.37;;
5153;SDS011;2595;53.584;10.084;2022-09-09T07:37:16;10.20;;;6.30;;
5153;SDS011;2595;53.584;10.084;2022-09-09T07:39:42;7.17;;;6.47;;
5153;SDS011;2595;53.584;10.084;2022-09-09T07:42:09;6.83;;;6.23;;
5153;SDS011;2595;53.584;10.084;2022-09-09T07:44:36;6.27;;;5.77;;
5153;SDS011;2595;53.584;10.084;2022-09-09T07:47:04;8.50;;;6.27;;
5153;SDS011;2595;53.584;10.084;2022-09-09T07:49:30;6.30;;;5.67;;
5153;SDS011;2595;53.584;10.084;2022-09-09T07:51:57;5.90;;;5.60;;
5153;SDS011;2595;53.584;10.084;2022-09-09T07:54:23;7.00;;;6.40;;
5153;SDS011;2595;53.584;10.084;2022-09-09T07:56:50;5.37;;;5.07;;
5153;SDS011;2595;53.584;10.084;2022-09-09T07:59:16;5.80;;;5.40;;
5153;SDS011;2595;53.584;10.084;2022-09-09T08:01:43;6.33;;;5.90;;
5153;SDS011;2595;53.584;10.084;2022-09-09T08:04:18;6.13;;;5.60;;
5153;SDS011;2595;53.584;10.084;2022-09-09T08:06:46;5.60;;;5.10;;
5153;SDS011;2595;53.584;10.084;2022-09-09T08:09:14;9.17;;;6.20;;
5153;SDS011;2595;53.584;10.084;2022-09-09T08:11:41;6.53;;;6.23;;
5153;SDS011;2595;53.584;10.084;2022-09-09T08:14:07;6.00;;;5.60;;
5153;SDS011;2595;53.584;10.084;2022-09-09T08:16:34;5.87;;;5.53;;
5153;SDS011;2595;53.584;10.084;2022-09-09T08:19:02;6.10;;;5.70;;
5153;SDS011;2595;53.584;10.084;2022-09-09T08:21:30;6.70;;;5.77;;
5153;SDS011;2595;53.584;10.084;2022-09-09T08:23:57;6.77;;;6.17;;
5153;SDS011;2595;53.584;10.084;2022-09-09T08:26:25;6.57;;;6.23;;
5153;SDS011;2595;53.584;10.084;2022-09-09T08:28:53;6.03;;;5.73;;
5153;SDS011;2595;53.584;10.084;2022-09-09T08:31:21;5.80;;;5.40;;
5153;SDS011;2595;53.584;10.084;2022-09-09T08:33:48;7.93;;;6.20;;
5153;SDS011;2595;53.584;10.084;2022-09-09T08:36:19;5.67;;;5.27;;
5153;SDS011;2595;53.584;10.084;2022-09-09T08:38:50;6.03;;;5.50;;
5153;SDS011;2595;53.584;10.084;2022-09-09T08:52:41;5.00;;;4.70;;
5153;SDS011;2595;53.584;10.084;2022-09-09T08:58:20;11.73;;;5.40;;
5153;SDS011;2595;53.584;10.084;2022-09-09T09:11:23;5.73;;;5.30;;
5153;SDS011;2595;53.584;10.084;2022-09-09T09:19:10;11.23;;;4.00;;
5153;SDS011;2595;53.584;10.084;2022-09-09T09:21:41;5.20;;;4.73;;
5153;SDS011;2595;53.584;10.084;2022-09-09T09:24:21;4.90;;;4.40;;
5153;SDS011;2595;53.584;10.084;2022-09-09T09:26:52;5.30;;;4.13;;
5153;SDS011;2595;53.584;10.084;2022-09-09T09:29:19;4.60;;;4.17;;
5153;SDS011;2595;53.584;10.084;2022-09-09T09:31:53;4.10;;;3.80;;
5153;SDS011;2595;53.584;10.084;2022-09-09T09:34:25;3.47;;;3.27;;
5153;SDS011;2595;53.584;10.084;2022-09-09T09:36:57;6.87;;;4.37;;
5153;SDS011;2595;53.584;10.084;2022-09-09T09:39:30;4.17;;;3.87;;
5153;SDS011;2595;53.584;10.084;2022-09-09T09:42:12;4.40;;;4.10;;
5153;SDS011;2595;53.584;10.084;2022-09-09T09:44:39;4.73;;;3.43;;
5153;SDS011;2595;53.584;10.084;2022-09-09T09:47:23;3.30;;;3.10;;
5153;SDS011;2595;53.584;10.084;2022-09-09T09:49:53;9.37;;;3.40;;
5153;SDS011;2595;53.584;10.084;2022-09-09T09:52:25;4.17;;;3.80;;
5153;SDS011;2595;53.584;10.084;2022-09-09T09:54:53;3.60;;;3.40;;
5153;SDS011;2595;53.584;10.084;2022-09-09T09:57:27;4.03;;;3.70;;
5153;SDS011;2595;53.584;10.084;2022-09-09T10:02:37;4.67;;;3.87;;
5153;SDS011;2595;53.584;10.084;2022-09-09T10:05:19;3.67;;;3.37;;
5153;SDS011;2595;53.584;10.084;2022-09-09T10:16:39;6.17;;;3.10;;
5153;SDS011;2595;53.584;10.084;2022-09-09T10:19:09;3.20;;;2.83;;
5153;SDS011;2595;53.584;10.084;2022-09-09T10:22:02;2.70;;;2.50;;
5153;SDS011;2595;53.584;10.084;2022-09-09T10:40:43;8.13;;;2.70;;
5153;SDS011;2595;53.584;10.084;2022-09-09T10:43:31;2.27;;;2.17;;
5153;SDS011;2595;53.584;10.084;2022-09-09T10:48:31;1.70;;;1.60;;
5153;SDS011;2595;53.584;10.084;2022-09-09T10:56:28;2.40;;;1.50;;
5153;SDS011;2595;53.584;10.084;2022-09-09T10:59:12;1.87;;;1.70;;
5153;SDS011;2595;53.584;10.084;2022-09-09T11:01:44;2.10;;;2.00;;
5153;SDS011;2595;53.584;10.084;2022-09-09T11:04:29;1.77;;;1.67;;
5153;SDS011;2595;53.584;10.084;2022-09-09T11:07:00;1.70;;;1.60;;
5153;SDS011;2595;53.584;10.084;2022-09-09T11:09:32;2.37;;;1.57;;
5153;SDS011;2595;53.584;10.084;2022-09-09T11:12:02;3.07;;;1.60;;
5153;SDS011;2595;53.584;10.084;2022-09-09T11:14:32;2.70;;;2.17;;
5153;SDS011;2595;53.584;10.084;2022-09-09T11:19:40;2.33;;;1.40;;
5153;SDS011;2595;53.584;10.084;2022-09-09T11:22:15;1.73;;;1.63;;
5153;SDS011;2595;53.584;10.084;2022-09-09T11:24:52;3.03;;;1.80;;
5153;SDS011;2595;53.584;10.084;2022-09-09T11:27:24;4.53;;;2.07;;
5153;SDS011;2595;53.584;10.084;2022-09-09T11:36:38;2.10;;;1.90;;
5153;SDS011;2595;53.584;10.084;2022-09-09T11:41:53;2.40;;;2.20;;
5153;SDS011;2595;53.584;10.084;2022-09-09T11:44:25;1.90;;;1.80;;
5153;SDS011;2595;53.584;10.084;2022-09-09T11:46:54;1.77;;;1.67;;
5153;SDS011;2595;53.584;10.084;2022-09-09T11:49:27;2.03;;;1.70;;
5153;SDS011;2595;53.584;10.084;2022-09-09T11:55:11;2.30;;;2.03;;
5153;SDS011;2595;53.584;10.084;2022-09-09T11:57:59;2.53;;;1.83;;
5153;SDS011;2595;53.584;10.084;2022-09-09T12:02:58;2.27;;;1.80;;
5153;SDS011;2595;53.584;10.084;2022-09-09T12:05:23;4.43;;;2.23;;
5153;SDS011;2595;53.584;10.084;2022-09-09T12:08:05;2.97;;;1.70;;
5153;SDS011;2595;53.584;10.084;2022-09-09T12:10:35;2.27;;;2.17;;
5153;SDS011;2595;53.584;10.084;2022-09-09T12:13:19;1.80;;;1.70;;
5153;SDS011;2595;53.584;10.084;2022-09-09T12:15:48;2.20;;;1.63;;
5153;SDS011;2595;53.584;10.084;2022-09-09T12:21:03;1.70;;;1.60;;
5153;SDS011;2595;53.584;10.084;2022-09-09T12:23:57;2.33;;;2.13;;
5153;SDS011;2595;53.584;10.084;2022-09-09T12:26:38;1.70;;;1.60;;
5153;SDS011;2595;53.584;10.084;2022-09-09T12:31:58;2.43;;;2.20;;
5153;SDS011;2595;53.584;10.084;2022-09-09T12:34:52;2.07;;;1.93;;
5153;SDS011;2595;53.584;10.084;2022-09-09T12:37:27;1.90;;;1.50;;
5153;SDS011;2595;53.584;10.084;2022-09-09T12:39:58;2.10;;;2.00;;
5153;SDS011;2595;53.584;10.084;2022-09-09T12:42:27;2.43;;;2.23;;
5153;SDS011;2595;53.584;10.084;2022-09-09T12:50:00;2.07;;;1.97;;
5153;SDS011;2595;53.584;10.084;2022-09-09T12:52:30;2.20;;;2.10;;
5153;SDS011;2595;53.584;10.084;2022-09-09T12:54:59;3.23;;;2.40;;
5153;SDS011;2595;53.584;10.084;2022-09-09T12:57:29;2.20;;;2.00;;
5153;SDS011;2595;53.584;10.084;2022-09-09T13:00:05;2.80;;;2.60;;
5153;SDS011;2595;53.584;10.084;2022-09-09T13:02:45;4.23;;;2.80;;
5153;SDS011;2595;53.584;10.084;2022-09-09T13:08:08;5.43;;;2.40;;
5153;SDS011;2595;53.584;10.084;2022-09-09T13:10:37;2.77;;;2.60;;
5153;SDS011;2595;53.584;10.084;2022-09-09T13:13:17;3.30;;;2.40;;
5153;SDS011;2595;53.584;10.084;2022-09-09T13:15:52;2.37;;;2.17;;
5153;SDS011;2595;53.584;10.084;2022-09-09T13:18:24;2.20;;;2.07;;
5153;SDS011;2595;53.584;10.084;2022-09-09T13:20:53;5.53;;;2.10;;
5153;SDS011;2595;53.584;10.084;2022-09-09T13:23:19;4.10;;;2.67;;
5153;SDS011;2595;53.584;10.084;2022-09-09T13:25:54;2.80;;;2.60;;
5153;SDS011;2595;53.584;10.084;2022-09-09T13:28:25;3.03;;;2.70;;
5153;SDS011;2595;53.584;10.084;2022-09-09T13:30:59;3.40;;;2.60;;
5153;SDS011;2595;53.584;10.084;2022-09-09T13:33:44;2.77;;;2.60;;
5153;SDS011;2595;53.584;10.084;2022-09-09T13:36:10;2.70;;;2.43;;
5153;SDS011;2595;53.584;10.084;2022-09-09T13:44:24;3.93;;;3.17;;
5153;SDS011;2595;53.584;10.084;2022-09-09T13:47:02;3.27;;;2.80;;
5153;SDS011;2595;53.584;10.084;2022-09-09T13:49:30;3.17;;;2.97;;
5153;SDS011;2595;53.584;10.084;2022-09-09T13:54:36;2.73;;;2.50;;
5153;SDS011;2595;53.584;10.084;2022-09-09T13:57:02;4.90;;;3.27;;
5153;SDS011;2595;53.584;10.084;2022-09-09T13:59:29;3.73;;;3.40;;
5153;SDS011;2595;53.584;10.084;2022-09-09T14:01:55;3.20;;;2.90;;
5153;SDS011;2595;53.584;10.084;2022-09-09T14:04:21;3.03;;;2.70;;
5153;SDS011;2595;53.584;10.084;2022-09-09T14:06:47;3.43;;;3.23;;
5153;SDS011;2595;53.584;10.084;2022-09-09T14:09:14;3.37;;;3.07;;
5153;SDS011;2595;53.584;10.084;2022-09-09T14:11:42;3.67;;;3.00;;
5153;SDS011;2595;53.584;10.084;2022-09-09T14:14:08;3.60;;;3.30;;
5153;SDS011;2595;53.584;10.084;2022-09-09T14:16:34;3.47;;;3.23;;
5153;SDS011;2595;53.584;10.084;2022-09-09T14:19:00;6.27;;;3.87;;
5153;SDS011;2595;53.584;10.084;2022-09-09T14:21:27;2.93;;;2.73;;
5153;SDS011;2595;53.584;10.084;2022-09-09T14:23:52;4.93;;;2.77;;
5153;SDS011;2595;53.584;10.084;2022-09-09T14:26:19;3.80;;;3.50;;
5153;SDS011;2595;53.584;10.084;2022-09-09T14:28:46;3.73;;;3.43;;
5153;SDS011;2595;53.584;10.084;2022-09-09T14:31:12;3.93;;;3.63;;
5153;SDS011;2595;53.584;10.084;2022-09-09T14:33:42;4.10;;;3.40;;
5153;SDS011;2595;53.584;10.084;2022-09-09T14:36:09;3.30;;;3.00;;
5153;SDS011;2595;53.584;10.084;2022-09-09T14:38:36;4.13;;;3.50;;
5153;SDS011;2595;53.584;10.084;2022-09-09T14:41:06;4.43;;;4.03;;
5153;SDS011;2595;53.584;10.084;2022-09-09T14:43:37;9.90;;;3.37;;
5153;SDS011;2595;53.584;10.084;2022-09-09T14:46:07;4.80;;;4.40;;
5153;SDS011;2595;53.584;10.084;2022-09-09T14:48:34;6.10;;;3.77;;
5153;SDS011;2595;53.584;10.084;2022-09-09T14:51:10;3.50;;;3.20;;
5153;SDS011;2595;53.584;10.084;2022-09-09T14:53:38;3.53;;;3.23;;
5153;SDS011;2595;53.584;10.084;2022-09-09T14:56:08;3.97;;;3.10;;
5153;SDS011;2595;53.584;10.084;2022-09-09T14:58:42;4.60;;;4.10;;
5153;SDS011;2595;53.584;10.084;2022-09-09T15:01:09;4.50;;;4.20;;
5153;SDS011;2595;53.584;10.084;2022-09-09T15:03:48;7.43;;;3.90;;
5153;SDS011;2595;53.584;10.084;2022-09-09T15:06:16;4.30;;;3.90;;
5153;SDS011;2595;53.584;10.084;2022-09-09T15:08:42;4.13;;;3.63;;
5153;SDS011;2595;53.584;10.084;2022-09-09T15:11:09;3.03;;;2.83;;
5153;SDS011;2595;53.584;10.084;2022-09-09T15:13:37;2.60;;;2.50;;
5153;SDS011;2595;53.584;10.084;2022-09-09T15:16:05;2.67;;;2.43;;
5153;SDS011;2595;53.584;10.084;2022-09-09T15:18:31;2.80;;;2.60;;
5153;SDS011;2595;53.584;10.084;2022-09-09T15:20:58;2.57;;;2.37;;
5153;SDS011;2595;53.584;10.084;2022-09-09T15:23:24;3.67;;;3.37;;
5153;SDS011;2595;53.584;10.084;2022-09-09T15:25:53;2.77;;;2.50;;
5153;SDS011;2595;53.584;10.084;2022-09-09T15:28:20;3.90;;;2.60;;
5153;SDS011;2595;53.584;10.084;2022-09-09T15:30:47;2.97;;;2.67;;
5153;SDS011;2595;53.584;10.084;2022-09-09T15:33:19;3.80;;;2.63;;
5153;SDS011;2595;53.584;10.084;2022-09-09T15:35:46;3.23;;;2.20;;
5153;SDS011;2595;53.584;10.084;2022-09-09T15:38:12;8.80;;;3.10;;
5153;SDS011;2595;53.584;10.084;2022-09-09T15:40:38;4.70;;;2.67;;
5153;SDS011;2595;53.584;10.084;2022-09-09T15:43:05;2.57;;;2.37;;
5153;SDS011;2595;53.584;10.084;2022-09-09T15:45:32;2.33;;;2.13;;
5153;SDS011;2595;53.584;10.084;2022-09-09T15:47:59;2.00;;;1.90;;
5153;SDS011;2595;53.584;10.084;2022-09-09T15:50:25;4.03;;;2.07;;
5153;SDS011;2595;53.584;10.084;2022-09-09T15:52:51;1.93;;;1.80;;
5153;SDS011;2595;53.584;10.084;2022-09-09T15:55:17;1.70;;;1.60;;
5153;SDS011;2595;53.584;10.084;2022-09-09T15:57:45;2.33;;;2.00;;
5153;SDS011;2595;53.584;10.084;2022-09-09T16:00:11;3.93;;;2.23;;
5153;SDS011;2595;53.584;10.084;2022-09-09T16:02:38;3.33;;;2.47;;
5153;SDS011;2595;53.584;10.084;2022-09-09T16:05:04;2.47;;;2.30;;
5153;SDS011;2595;53.584;10.084;2022-09-09T16:07:30;2.90;;;2.30;;
5153;SDS011;2595;53.584;10.084;2022-09-09T16:09:55;3.40;;;3.17;;
5153;SDS011;2595;53.584;10.084;2022-09-09T16:12:21;3.37;;;3.17;;
5153;SDS011;2595;53.584;10.084;2022-09-09T16:14:46;3.67;;;3.37;;
5153;SDS011;2595;53.584;10.084;2022-09-09T16:17:12;3.10;;;2.90;;
5153;SDS011;2595;53.584;10.084;2022-09-09T16:19:39;3.30;;;3.00;;
5153;SDS011;2595;53.584;10.084;2022-09-09T16:22:05;3.40;;;3.10;;
5153;SDS011;2595;53.584;10.084;2022-09-09T16:24:31;3.63;;;3.33;;
5153;SDS011;2595;53.584;10.084;2022-09-09T16:26:57;2.53;;;2.43;;
5153;SDS011;2595;53.584;10.084;2022-09-09T16:29:23;5.63;;;4.20;;
5153;SDS011;2595;53.584;10.084;2022-09-09T16:31:52;2.80;;;2.60;;
5153;SDS011;2595;53.584;10.084;2022-09-09T16:34:18;7.23;;;2.13;;
5153;SDS011;2595;53.584;10.084;2022-09-09T16:36:45;2.67;;;1.90;;
5153;SDS011;2595;53.584;10.084;2022-09-09T16:39:14;2.03;;;1.93;;
5153;SDS011;2595;53.584;10.084;2022-09-09T16:41:41;3.17;;;2.97;;
5153;SDS011;2595;53.584;10.084;2022-09-09T16:44:09;2.47;;;2.27;;
5153;SDS011;2595;53.584;10.084;2022-09-09T16:46:37;1.90;;;1.80;;
5153;SDS011;2595;53.584;10.084;2022-09-09T16:49:05;3.00;;;1.80;;
5153;SDS011;2595;53.584;10.084;2022-09-09T16:51:33;2.47;;;2.30;;
5153;SDS011;2595;53.584;10.084;2022-09-09T16:54:04;2.73;;;2.53;;
5153;SDS011;2595;53.584;10.084;2022-09-09T16:56:32;2.03;;;1.93;;
5153;SDS011;2595;53.584;10.084;2022-09-09T16:59:00;3.80;;;2.13;;
5153;SDS011;2595;53.584;10.084;2022-09-09T17:01:29;4.97;;;2.80;;
5153;SDS011;2595;53.584;10.084;2022-09-09T17:03:58;2.33;;;2.13;;
5153;SDS011;2595;53.584;10.084;2022-09-09T17:06:28;2.60;;;2.40;;
5153;SDS011;2595;53.584;10.084;2022-09-09T17:08:59;2.10;;;2.00;;
5153;SDS011;2595;53.584;10.084;2022-09-09T17:11:26;3.40;;;3.10;;
5153;SDS011;2595;53.584;10.084;2022-09-09T17:13:53;3.10;;;2.90;;
5153;SDS011;2595;53.584;10.084;2022-09-09T17:16:19;3.30;;;3.00;;
5153;SDS011;2595;53.584;10.084;2022-09-09T17:18:46;3.20;;;2.27;;
5153;SDS011;2595;53.584;10.084;2022-09-09T17:21:13;2.50;;;2.30;;
5153;SDS011;2595;53.584;10.084;2022-09-09T17:23:41;3.00;;;2.80;;
5153;SDS011;2595;53.584;10.084;2022-09-09T17:26:08;3.30;;;3.10;;
5153;SDS011;2595;53.584;10.084;2022-09-09T17:28:36;3.13;;;2.50;;
5153;SDS011;2595;53.584;10.084;2022-09-09T17:31:04;4.30;;;2.90;;
5153;SDS011;2595;53.584;10.084;2022-09-09T17:33:34;3.10;;;2.90;;
5153;SDS011;2595;53.584;10.084;2022-09-09T17:36:02;2.77;;;2.43;;
5153;SDS011;2595;53.584;10.084;2022-09-09T17:38:32;3.30;;;3.10;;
5153;SDS011;2595;53.584;10.084;2022-09-09T17:41:05;3.00;;;2.90;;